Time;durP1;ratioP1;P1;durP2;ratioP2;P2;SDS_P1;SDS_P2;PMS_P1;PMS_P2;Temp;Humidity;BMP_temperature;BMP_pressure;BME280_temperature;BME280_humidity;BME280_pressure;Samples;Min_cycle;Max_cycle;Signal;HPM_P1;HPM_P2
2023/05/15 00:00:51;;;;;;;5.83;2.77;;;;;;;;;;5093974;28;21148;-63
2023/05/15 00:03:17;;;;;;;3.20;2.77;;;;;;;;;;5092316;28;20496;-63
2023/05/15 00:05:43;;;;;;;3.07;2.93;;;;;;;;;;5093776;28;20429;-63
2023/05/15 00:08:09;;;;;;;3.47;3.37;;;;;;;;;;5094037;28;20415;-62
2023/05/15 00:10:35;;;;;;;2.77;2.67;;;;;;;;;;5093532;28;20489;-63
2023/05/15 00:13:01;;;;;;;2.90;2.80;;;;;;;;;;5093469;28;20437;-63
2023/05/15 00:15:27;;;;;;;3.37;3.27;;;;;;;;;;5093485;28;20433;-63
2023/05/15 00:17:54;;;;;;;3.30;3.10;;;;;;;;;;5093135;28;20500;-62
2023/05/15 00:20:20;;;;;;;2.60;2.50;;;;;;;;;;5093441;28;20567;-62
2023/05/15 00:22:48;;;;;;;3.37;3.23;;;;;;;;;;5093152;28;20898;-63
2023/05/15 00:25:14;;;;;;;3.70;3.43;;;;;;;;;;5093421;28;20423;-63
2023/05/15 00:27:40;;;;;;;3.50;3.40;;;;;;;;;;5093328;28;20927;-62
2023/05/15 00:30:06;;;;;;;3.60;3.40;;;;;;;;;;5093329;28;20451;-62
2023/05/15 00:32:32;;;;;;;3.30;3.00;;;;;;;;;;5093097;28;20949;-62
2023/05/15 00:34:58;;;;;;;6.00;3.10;;;;;;;;;;5093209;28;20409;-62
2023/05/15 00:37:24;;;;;;;2.83;2.73;;;;;;;;;;5093016;28;20763;-62
2023/05/15 00:39:50;;;;;;;3.87;3.67;;;;;;;;;;5092771;28;20463;-62
2023/05/15 00:42:16;;;;;;;8.00;3.80;;;;;;;;;;5093107;28;20907;-62
2023/05/15 00:44:44;;;;;;;3.20;3.00;;;;;;;;;;5092151;28;20405;-62
2023/05/15 00:47:13;;;;;;;3.20;3.10;;;;;;;;;;5093041;28;20409;-62
2023/05/15 00:49:42;;;;;;;3.60;3.20;;;;;;;;;;5092912;28;20433;-62
2023/05/15 00:52:08;;;;;;;3.70;3.00;;;;;;;;;;5092757;28;20411;-62
2023/05/15 00:54:34;;;;;;;3.57;2.80;;;;;;;;;;5092777;28;20433;-62
2023/05/15 00:57:01;;;;;;;2.97;2.97;;;;;;;;;;5092619;28;20412;-62
2023/05/15 00:59:31;;;;;;;3.00;2.90;;;;;;;;;;5092496;28;20440;-62
2023/05/15 01:01:57;;;;;;;3.03;2.83;;;;;;;;;;5092407;28;20532;-62
2023/05/15 01:04:23;;;;;;;3.60;3.30;;;;;;;;;;5092748;28;20662;-62
2023/05/15 01:06:52;;;;;;;3.27;3.17;;;;;;;;;;5092321;28;20401;-62
2023/05/15 01:09:19;;;;;;;2.73;2.60;;;;;;;;;;5092541;28;20504;-62
2023/05/15 01:11:46;;;;;;;3.47;3.27;;;;;;;;;;5090682;28;20457;-62
2023/05/15 01:14:12;;;;;;;3.90;3.43;;;;;;;;;;5092609;28;20424;-62
2023/05/15 01:16:45;;;;;;;3.23;3.13;;;;;;;;;;5091196;28;20435;-62
2023/05/15 01:19:14;;;;;;;3.37;3.27;;;;;;;;;;5092620;28;20413;-62
2023/05/15 01:21:59;;;;;;;12.70;3.33;;;;;;;;;;5090833;28;20472;-62
2023/05/15 01:24:34;;;;;;;4.07;3.87;;;;;;;;;;5092422;28;20401;-62
2023/05/15 01:27:19;;;;;;;3.40;3.30;;;;;;;;;;5092407;28;20405;-63
2023/05/15 01:29:45;;;;;;;3.27;3.13;;;;;;;;;;5092276;28;20442;-62
2023/05/15 01:32:23;;;;;;;3.37;3.27;;;;;;;;;;5092179;28;20452;-62
2023/05/15 01:34:52;;;;;;;3.40;3.20;;;;;;;;;;5092366;28;20440;-62
2023/05/15 01:37:21;;;;;;;3.17;2.93;;;;;;;;;;5092251;28;20777;-62
2023/05/15 01:39:49;;;;;;;3.37;3.07;;;;;;;;;;5091994;28;20955;-62
2023/05/15 01:42:16;;;;;;;3.77;3.53;;;;;;;;;;5092328;28;20828;-62
2023/05/15 01:44:52;;;;;;;3.47;3.17;;;;;;;;;;5091978;28;20432;-62
2023/05/15 01:47:20;;;;;;;3.60;3.50;;;;;;;;;;5091863;28;20412;-62
2023/05/15 01:49:48;;;;;;;4.70;4.30;;;;;;;;;;5092124;28;20405;-62
2023/05/15 01:52:21;;;;;;;2.97;2.83;;;;;;;;;;5092090;28;20413;-62
2023/05/15 01:54:48;;;;;;;3.30;2.90;;;;;;;;;;5092118;28;20409;-62
2023/05/15 01:57:14;;;;;;;4.63;3.40;;;;;;;;;;5091800;28;20433;-62
2023/05/15 01:59:41;;;;;;;4.13;3.80;;;;;;;;;;5092020;28;20425;-62
2023/05/15 02:02:07;;;;;;;5.90;4.17;;;;;;;;;;5091873;28;20523;-61
2023/05/15 02:04:34;;;;;;;5.53;3.87;;;;;;;;;;5091970;28;20828;-62
2023/05/15 02:07:03;;;;;;;4.30;4.00;;;;;;;;;;5091714;28;20950;-61
2023/05/15 02:09:31;;;;;;;3.80;3.60;;;;;;;;;;5091935;28;20576;-62
2023/05/15 02:11:58;;;;;;;3.80;3.70;;;;;;;;;;5091972;28;20415;-62
2023/05/15 02:14:27;;;;;;;4.27;3.90;;;;;;;;;;5091901;28;20884;-62
2023/05/15 02:16:54;;;;;;;3.43;3.33;;;;;;;;;;5092037;28;20401;-62
2023/05/15 02:19:20;;;;;;;3.43;3.13;;;;;;;;;;5091621;28;20428;-62
2023/05/15 02:21:48;;;;;;;3.57;3.40;;;;;;;;;;5091776;28;20822;-62
2023/05/15 02:24:14;;;;;;;6.40;3.63;;;;;;;;;;5090450;28;20441;-62
2023/05/15 02:26:54;;;;;;;3.40;3.30;;;;;;;;;;5091883;28;20905;-62
2023/05/15 02:29:20;;;;;;;3.03;2.90;;;;;;;;;;5091514;28;20425;-61
2023/05/15 02:31:57;;;;;;;3.50;3.30;;;;;;;;;;5091642;28;20409;-61
2023/05/15 02:34:34;;;;;;;3.00;2.90;;;;;;;;;;5091862;28;20412;-62
2023/05/15 02:37:02;;;;;;;5.90;3.63;;;;;;;;;;5091615;28;20412;-62
2023/05/15 02:39:28;;;;;;;3.73;3.40;;;;;;;;;;5091179;28;20439;-62
2023/05/15 02:41:55;;;;;;;4.17;3.87;;;;;;;;;;5091665;28;21043;-62
2023/05/15 02:44:24;;;;;;;4.87;4.00;;;;;;;;;;5091508;28;20436;-62
2023/05/15 02:46:50;;;;;;;4.50;4.30;;;;;;;;;;5091086;28;20819;-62
2023/05/15 02:49:16;;;;;;;4.80;4.50;;;;;;;;;;5091395;28;20428;-62
2023/05/15 02:51:42;;;;;;;3.80;3.70;;;;;;;;;;5091418;28;20425;-62
2023/05/15 02:54:11;;;;;;;3.80;3.70;;;;;;;;;;5091526;28;20469;-61
2023/05/15 02:56:37;;;;;;;5.80;3.97;;;;;;;;;;5091623;28;20434;-62
2023/05/15 02:59:03;;;;;;;3.50;3.40;;;;;;;;;;5091077;28;20405;-61
2023/05/15 03:01:29;;;;;;;3.83;3.53;;;;;;;;;;5090055;28;20955;-62
2023/05/15 03:03:55;;;;;;;3.93;3.73;;;;;;;;;;5091460;28;20440;-62
2023/05/15 03:06:21;;;;;;;3.40;3.30;;;;;;;;;;5091147;28;20413;-62
2023/05/15 03:08:47;;;;;;;3.67;3.47;;;;;;;;;;5059603;28;20533;-62
2023/05/15 03:11:13;;;;;;;3.77;3.67;;;;;;;;;;5054725;28;20887;-62
2023/05/15 03:13:39;;;;;;;3.40;3.30;;;;;;;;;;5054827;28;20418;-62
2023/05/15 03:16:05;;;;;;;2.93;2.93;;;;;;;;;;5054596;28;20411;-62
2023/05/15 03:18:33;;;;;;;3.33;3.33;;;;;;;;;;5054441;28;20429;-62
2023/05/15 03:20:59;;;;;;;3.70;3.60;;;;;;;;;;5054287;28;20466;-62
2023/05/15 03:23:25;;;;;;;6.07;3.80;;;;;;;;;;5054460;28;20411;-61
2023/05/15 03:25:51;;;;;;;6.83;3.37;;;;;;;;;;5054600;28;20442;-62
2023/05/15 03:28:17;;;;;;;3.80;3.70;;;;;;;;;;5054157;28;20446;-62
2023/05/15 03:30:44;;;;;;;5.00;4.70;;;;;;;;;;5054329;28;20439;-62
2023/05/15 03:33:09;;;;;;;5.07;4.20;;;;;;;;;;5054469;28;20423;-62
2023/05/15 03:35:35;;;;;;;4.13;3.93;;;;;;;;;;5054120;28;20468;-62
2023/05/15 03:38:01;;;;;;;4.20;3.90;;;;;;;;;;5054351;28;20457;-62
2023/05/15 03:40:27;;;;;;;4.83;4.33;;;;;;;;;;5054139;28;20465;-62
2023/05/15 03:42:53;;;;;;;4.30;4.10;;;;;;;;;;5052788;28;20947;-62
2023/05/15 03:45:22;;;;;;;4.70;4.40;;;;;;;;;;5054126;28;20442;-62
2023/05/15 03:47:50;;;;;;;4.30;4.00;;;;;;;;;;5053981;28;20542;-62
2023/05/15 03:50:18;;;;;;;4.30;3.90;;;;;;;;;;5054004;28;20827;-62
2023/05/15 03:52:44;;;;;;;3.70;3.50;;;;;;;;;;5054011;28;20449;-62
2023/05/15 03:55:10;;;;;;;4.20;3.90;;;;;;;;;;5053925;28;20439;-62
2023/05/15 03:57:40;;;;;;;4.40;4.20;;;;;;;;;;5053585;28;20891;-62
2023/05/15 04:00:09;;;;;;;4.47;4.37;;;;;;;;;;5053528;28;20478;-62
2023/05/15 04:02:35;;;;;;;9.40;4.37;;;;;;;;;;5053649;28;20430;-62
2023/05/15 04:05:02;;;;;;;4.60;4.50;;;;;;;;;;5053615;28;20804;-62
2023/05/15 04:07:28;;;;;;;4.60;4.40;;;;;;;;;;5053573;28;20422;-62
2023/05/15 04:09:54;;;;;;;4.43;3.93;;;;;;;;;;5053770;28;20438;-62
2023/05/15 04:12:21;;;;;;;4.80;4.53;;;;;;;;;;5053391;28;20419;-62
2023/05/15 04:14:47;;;;;;;5.73;5.27;;;;;;;;;;5053361;28;20457;-62
2023/05/15 04:17:13;;;;;;;6.03;5.47;;;;;;;;;;5052113;28;20419;-62
2023/05/15 04:19:39;;;;;;;5.57;5.20;;;;;;;;;;5051992;28;20442;-62
2023/05/15 04:22:05;;;;;;;6.30;5.87;;;;;;;;;;5053355;28;20458;-62
2023/05/15 04:24:31;;;;;;;7.30;6.90;;;;;;;;;;5052222;28;20458;-63
2023/05/15 04:26:57;;;;;;;5.60;5.40;;;;;;;;;;5053405;28;20439;-62
2023/05/15 04:29:23;;;;;;;4.37;4.23;;;;;;;;;;5053136;28;20411;-62
2023/05/15 04:31:49;;;;;;;7.47;4.60;;;;;;;;;;5052903;28;20422;-63
2023/05/15 04:34:15;;;;;;;5.23;4.53;;;;;;;;;;5053335;28;20465;-62
2023/05/15 04:36:42;;;;;;;4.83;4.50;;;;;;;;;;5053136;28;20796;-63
2023/05/15 04:39:08;;;;;;;6.93;4.60;;;;;;;;;;5053136;28;20468;-63
2023/05/15 04:41:34;;;;;;;5.30;5.00;;;;;;;;;;5052856;28;21044;-62
2023/05/15 04:43:59;;;;;;;4.00;3.73;;;;;;;;;;5052931;28;20422;-64
2023/05/15 04:46:25;;;;;;;4.40;4.30;;;;;;;;;;5052879;28;20890;-61
2023/05/15 04:48:54;;;;;;;6.03;4.00;;;;;;;;;;5052895;28;20796;-62
2023/05/15 04:51:20;;;;;;;15.87;9.23;;;;;;;;;;5052776;28;20411;-63
2023/05/15 04:53:46;;;;;;;47.03;30.20;;;;;;;;;;5052840;28;20849;-62
2023/05/15 04:56:12;;;;;;;19.53;16.80;;;;;;;;;;5052778;28;20411;-62
2023/05/15 04:58:40;;;;;;;9.20;7.10;;;;;;;;;;5052449;28;20425;-63
2023/05/15 05:01:06;;;;;;;8.83;4.87;;;;;;;;;;5052167;28;20478;-63
2023/05/15 05:03:32;;;;;;;5.23;4.93;;;;;;;;;;5052250;28;20419;-63
2023/05/15 05:05:58;;;;;;;6.27;5.77;;;;;;;;;;5051005;28;20534;-63
2023/05/15 05:08:24;;;;;;;6.33;5.93;;;;;;;;;;5052579;28;20415;-63
2023/05/15 05:10:55;;;;;;;6.10;5.73;;;;;;;;;;5052478;28;20499;-63
2023/05/15 05:13:21;;;;;;;6.13;5.37;;;;;;;;;;5052544;28;20415;-63
2023/05/15 05:15:47;;;;;;;5.57;5.37;;;;;;;;;;5052237;28;20530;-63
2023/05/15 05:18:12;;;;;;;6.90;6.13;;;;;;;;;;5051021;28;20427;-62
2023/05/15 05:20:38;;;;;;;5.63;5.43;;;;;;;;;;5052207;28;20549;-63
2023/05/15 05:23:07;;;;;;;4.93;4.73;;;;;;;;;;5052364;28;20902;-63
2023/05/15 05:25:33;;;;;;;5.03;4.63;;;;;;;;;;5052364;28;20414;-63
2023/05/15 05:27:59;;;;;;;5.47;4.97;;;;;;;;;;5052150;28;20439;-62
2023/05/15 05:30:25;;;;;;;5.03;4.80;;;;;;;;;;5051969;28;20944;-63
2023/05/15 05:32:50;;;;;;;4.90;4.70;;;;;;;;;;5070486;28;20422;-63
2023/05/15 05:35:16;;;;;;;4.97;4.67;;;;;;;;;;5072401;28;20888;-63
2023/05/15 05:37:42;;;;;;;5.20;4.83;;;;;;;;;;5072457;28;20773;-63
2023/05/15 05:40:09;;;;;;;4.87;4.67;;;;;;;;;;5072290;28;20473;-62
2023/05/15 05:42:35;;;;;;;4.80;4.70;;;;;;;;;;5072643;28;20410;-62
2023/05/15 05:45:01;;;;;;;5.10;4.90;;;;;;;;;;5072375;28;21283;-62
2023/05/15 05:47:30;;;;;;;5.17;4.97;;;;;;;;;;5072422;28;20414;-62
2023/05/15 05:49:56;;;;;;;5.67;5.37;;;;;;;;;;5072317;28;20465;-62
2023/05/15 05:52:22;;;;;;;4.63;4.53;;;;;;;;;;5072454;28;20918;-62
2023/05/15 05:54:50;;;;;;;4.57;4.40;;;;;;;;;;5072477;28;20407;-62
2023/05/15 05:57:16;;;;;;;5.97;5.10;;;;;;;;;;5072256;28;20417;-62
2023/05/15 05:59:45;;;;;;;5.53;4.80;;;;;;;;;;5072185;28;20430;-62
2023/05/15 06:02:11;;;;;;;5.73;5.53;;;;;;;;;;5072400;28;20441;-63
2023/05/15 06:04:37;;;;;;;5.53;5.20;;;;;;;;;;5072304;28;20897;-63
2023/05/15 06:07:06;;;;;;;6.13;5.43;;;;;;;;;;5070674;28;20498;-63
2023/05/15 06:09:32;;;;;;;8.30;5.10;;;;;;;;;;5072006;28;20417;-63
2023/05/15 06:11:59;;;;;;;6.10;5.20;;;;;;;;;;5071739;28;20426;-63
2023/05/15 06:14:25;;;;;;;5.77;5.30;;;;;;;;;;5072535;28;20410;-63
2023/05/15 06:16:51;;;;;;;5.17;5.00;;;;;;;;;;5072194;28;20441;-63
2023/05/15 06:19:17;;;;;;;4.90;4.70;;;;;;;;;;5070706;28;20418;-63
2023/05/15 06:21:43;;;;;;;5.87;5.47;;;;;;;;;;5072199;28;20555;-64
2023/05/15 06:24:09;;;;;;;6.00;5.70;;;;;;;;;;5071746;28;20460;-63
2023/05/15 06:26:35;;;;;;;6.90;6.30;;;;;;;;;;5072098;28;20410;-63
2023/05/15 06:29:01;;;;;;;6.53;6.13;;;;;;;;;;5071519;28;20453;-63
2023/05/15 06:31:27;;;;;;;6.87;6.57;;;;;;;;;;5070233;28;20434;-63
2023/05/15 06:33:53;;;;;;;7.00;6.50;;;;;;;;;;5071900;28;20450;-63
2023/05/15 06:36:19;;;;;;;7.53;6.97;;;;;;;;;;5071674;28;20467;-63
2023/05/15 06:38:47;;;;;;;6.60;6.10;;;;;;;;;;5071761;28;20498;-64
2023/05/15 06:41:13;;;;;;;7.03;6.33;;;;;;;;;;5071303;28;20465;-64
2023/05/15 06:43:39;;;;;;;10.17;6.27;;;;;;;;;;5074220;28;20475;-62
2023/05/15 06:46:05;;;;;;;6.70;5.90;;;;;;;;;;5075302;28;20437;-63
2023/05/15 06:48:34;;;;;;;5.90;5.37;;;;;;;;;;5075342;28;20413;-64
2023/05/15 06:51:00;;;;;;;6.87;6.47;;;;;;;;;;5075268;28;20418;-64
2023/05/15 06:53:28;;;;;;;6.83;6.43;;;;;;;;;;5075343;28;20421;-63
2023/05/15 06:55:54;;;;;;;7.10;6.60;;;;;;;;;;5075386;28;20418;-63
2023/05/15 06:58:20;;;;;;;7.10;6.50;;;;;;;;;;5075191;28;20438;-63
2023/05/15 07:00:48;;;;;;;7.50;7.00;;;;;;;;;;5075598;28;20469;-63
2023/05/15 07:03:15;;;;;;;6.90;6.60;;;;;;;;;;5075098;28;20437;-63
2023/05/15 07:05:41;;;;;;;29.07;8.50;;;;;;;;;;5075244;28;20493;-63
2023/05/15 07:08:07;;;;;;;8.30;7.50;;;;;;;;;;5074941;28;20414;-61
2023/05/15 07:10:33;;;;;;;9.53;7.67;;;;;;;;;;5075335;28;20422;-63
2023/05/15 07:12:59;;;;;;;7.30;6.80;;;;;;;;;;5074996;28;20786;-63
2023/05/15 07:15:25;;;;;;;7.53;7.00;;;;;;;;;;5075082;28;20450;-62
2023/05/15 07:17:53;;;;;;;8.10;7.50;;;;;;;;;;5074848;28;20446;-62
2023/05/15 07:20:19;;;;;;;8.23;7.47;;;;;;;;;;5073058;28;20551;-62
2023/05/15 07:22:45;;;;;;;8.83;7.97;;;;;;;;;;5074870;28;20407;-62
2023/05/15 07:25:11;;;;;;;9.00;8.33;;;;;;;;;;5074841;28;20468;-62
2023/05/15 07:27:37;;;;;;;8.33;7.60;;;;;;;;;;5075192;28;20445;-63
2023/05/15 07:30:03;;;;;;;8.60;8.00;;;;;;;;;;5075158;28;20439;-63
2023/05/15 07:32:30;;;;;;;8.40;7.80;;;;;;;;;;5074868;28;20411;-63
2023/05/15 07:34:56;;;;;;;9.30;8.33;;;;;;;;;;5075117;28;20443;-63
2023/05/15 07:37:22;;;;;;;10.23;9.37;;;;;;;;;;5075060;28;20410;-63
2023/05/15 07:39:48;;;;;;;9.40;8.70;;;;;;;;;;5074969;28;20459;-62
2023/05/15 07:42:14;;;;;;;10.33;9.27;;;;;;;;;;5074880;28;20460;-63
2023/05/15 07:44:40;;;;;;;9.53;8.73;;;;;;;;;;5074927;28;20493;-62
2023/05/15 07:47:06;;;;;;;10.00;9.20;;;;;;;;;;5074797;28;20502;-63
2023/05/15 07:49:32;;;;;;;10.90;10.00;;;;;;;;;;5074669;28;20438;-63
2023/05/15 07:51:58;;;;;;;10.03;9.37;;;;;;;;;;5074628;28;20421;-63
2023/05/15 07:54:25;;;;;;;16.47;8.80;;;;;;;;;;5074188;28;20524;-63
2023/05/15 07:56:52;;;;;;;14.53;9.50;;;;;;;;;;5074677;28;20885;-63
2023/05/15 07:59:18;;;;;;;11.77;10.63;;;;;;;;;;5074408;28;20440;-63
2023/05/15 08:01:44;;;;;;;10.70;9.73;;;;;;;;;;5074448;28;20462;-63
2023/05/15 08:04:11;;;;;;;9.57;8.80;;;;;;;;;;5074379;28;20437;-63
2023/05/15 08:06:37;;;;;;;9.10;8.40;;;;;;;;;;5074418;28;20694;-63
2023/05/15 08:09:03;;;;;;;9.63;8.77;;;;;;;;;;5074445;28;20436;-62
2023/05/15 08:11:29;;;;;;;11.43;10.27;;;;;;;;;;5074241;28;20907;-63
2023/05/15 08:13:55;;;;;;;9.40;8.60;;;;;;;;;;5074536;28;20444;-63
2023/05/15 08:16:21;;;;;;;12.47;9.87;;;;;;;;;;5074505;28;20424;-63
2023/05/15 08:18:51;;;;;;;9.73;8.97;;;;;;;;;;5074290;28;20441;-63
2023/05/15 08:21:17;;;;;;;10.87;9.80;;;;;;;;;;5074452;28;20468;-63
2023/05/15 08:23:43;;;;;;;10.33;9.60;;;;;;;;;;5074013;28;20931;-63
2023/05/15 08:26:09;;;;;;;10.23;9.50;;;;;;;;;;5074009;28;20812;-63
2023/05/15 08:28:38;;;;;;;11.30;10.30;;;;;;;;;;5073964;28;20493;-63
2023/05/15 08:31:04;;;;;;;10.63;9.70;;;;;;;;;;5074150;28;20420;-62
2023/05/15 08:33:30;;;;;;;10.33;9.63;;;;;;;;;;5073731;28;20427;-63
2023/05/15 08:35:56;;;;;;;10.77;9.67;;;;;;;;;;5073835;28;20442;-63
2023/05/15 08:38:22;;;;;;;9.57;8.87;;;;;;;;;;5073667;28;20413;-63
2023/05/15 08:40:49;;;;;;;11.33;10.33;;;;;;;;;;5073813;28;20468;-62
2023/05/15 08:43:17;;;;;;;11.00;9.87;;;;;;;;;;5073639;28;20405;-62
2023/05/15 08:45:43;;;;;;;10.03;9.23;;;;;;;;;;5073704;28;20409;-62
2023/05/15 08:48:10;;;;;;;12.13;10.70;;;;;;;;;;5073627;28;20491;-62
2023/05/15 08:50:38;;;;;;;11.20;10.10;;;;;;;;;;5073460;28;20418;-62
2023/05/15 08:53:07;;;;;;;10.97;10.00;;;;;;;;;;5073725;28;20413;-62
2023/05/15 08:55:33;;;;;;;10.53;9.43;;;;;;;;;;5073522;28;20420;-62
2023/05/15 08:58:00;;;;;;;19.63;10.97;;;;;;;;;;5073481;28;20899;-62
2023/05/15 09:00:26;;;;;;;11.20;10.30;;;;;;;;;;5073155;28;20471;-62
2023/05/15 09:02:53;;;;;;;10.10;9.27;;;;;;;;;;5073476;28;20397;-62
2023/05/15 09:05:21;;;;;;;11.07;10.23;;;;;;;;;;5072584;28;20438;-62
2023/05/15 09:07:50;;;;;;;13.33;12.23;;;;;;;;;;5073113;28;20419;-62
2023/05/15 09:10:16;;;;;;;13.13;10.53;;;;;;;;;;5073181;28;20439;-62
2023/05/15 09:12:45;;;;;;;15.33;11.13;;;;;;;;;;5073197;28;20416;-62
2023/05/15 09:15:16;;;;;;;10.60;9.80;;;;;;;;;;5073000;28;20439;-62
2023/05/15 09:17:42;;;;;;;10.37;9.57;;;;;;;;;;5073068;28;20448;-62
2023/05/15 09:20:28;;;;;;;13.60;10.70;;;;;;;;;;5072999;28;20475;-62
2023/05/15 09:22:55;;;;;;;13.70;11.90;;;;;;;;;;5073103;28;20831;-62
2023/05/15 09:25:38;;;;;;;11.17;10.27;;;;;;;;;;5072922;28;20412;-62
2023/05/15 09:28:07;;;;;;;12.73;10.97;;;;;;;;;;5071612;28;20412;-62
2023/05/15 09:30:36;;;;;;;12.40;11.30;;;;;;;;;;5072704;28;20484;-62
2023/05/15 09:33:03;;;;;;;12.53;11.40;;;;;;;;;;5072937;28;20779;-62
2023/05/15 09:35:32;;;;;;;12.07;11.07;;;;;;;;;;5072888;28;20803;-62
2023/05/15 09:37:59;;;;;;;13.83;12.57;;;;;;;;;;5071542;28;20421;-62
2023/05/15 09:40:27;;;;;;;12.57;11.10;;;;;;;;;;5072645;28;20467;-62
2023/05/15 09:42:53;;;;;;;14.00;10.10;;;;;;;;;;5072674;28;20412;-62
2023/05/15 09:45:19;;;;;;;12.33;11.23;;;;;;;;;;5072953;28;20447;-62
2023/05/15 09:47:46;;;;;;;11.53;10.50;;;;;;;;;;5071375;28;20463;-64
2023/05/15 09:50:19;;;;;;;12.27;11.17;;;;;;;;;;5072697;28;20436;-64
2023/05/15 09:52:45;;;;;;;10.80;10.00;;;;;;;;;;5072585;28;20844;-62
2023/05/15 09:55:15;;;;;;;11.53;9.90;;;;;;;;;;5072564;28;20537;-62
2023/05/15 09:57:44;;;;;;;12.80;9.80;;;;;;;;;;5072602;28;20414;-62
2023/05/15 10:00:11;;;;;;;10.37;9.57;;;;;;;;;;5072219;28;20489;-61
2023/05/15 10:02:40;;;;;;;8.87;8.37;;;;;;;;;;5072523;28;20515;-64
2023/05/15 10:05:06;;;;;;;10.17;9.27;;;;;;;;;;5072590;28;20846;-65
2023/05/15 10:07:34;;;;;;;9.10;8.30;;;;;;;;;;5072743;28;20835;-65
2023/05/15 10:10:03;;;;;;;8.73;8.13;;;;;;;;;;5072448;28;20438;-62
2023/05/15 10:12:31;;;;;;;8.63;7.83;;;;;;;;;;5072432;28;20406;-62
2023/05/15 10:14:57;;;;;;;8.00;7.40;;;;;;;;;;5072204;28;20489;-62
2023/05/15 10:17:23;;;;;;;8.10;7.50;;;;;;;;;;5074948;28;20386;-64
2023/05/15 10:19:50;;;;;;;8.63;8.03;;;;;;;;;;5076452;28;20443;-62
2023/05/15 10:22:21;;;;;;;6.83;6.40;;;;;;;;;;5076498;28;20475;-62
2023/05/15 10:24:49;;;;;;;8.63;7.77;;;;;;;;;;5076226;28;20410;-62
2023/05/15 10:27:18;;;;;;;7.70;7.30;;;;;;;;;;5074979;28;20892;-62
2023/05/15 10:29:47;;;;;;;8.40;7.90;;;;;;;;;;5076189;28;20443;-64
2023/05/15 10:32:14;;;;;;;7.90;7.50;;;;;;;;;;5074988;28;20438;-64
2023/05/15 10:34:40;;;;;;;6.33;5.90;;;;;;;;;;5074892;28;20526;-64
2023/05/15 10:37:07;;;;;;;3.70;3.47;;;;;;;;;;5076241;28;20494;-63
2023/05/15 10:39:35;;;;;;;5.90;4.50;;;;;;;;;;5076218;28;20420;-64
2023/05/15 10:42:01;;;;;;;4.60;4.47;;;;;;;;;;5075961;28;20549;-63
2023/05/15 10:44:27;;;;;;;5.60;5.13;;;;;;;;;;5075977;28;20468;-64
2023/05/15 10:46:53;;;;;;;4.93;4.73;;;;;;;;;;5076032;28;20400;-64
2023/05/15 10:49:19;;;;;;;5.47;5.20;;;;;;;;;;5075933;28;20775;-64
2023/05/15 10:51:45;;;;;;;6.10;5.60;;;;;;;;;;5075916;28;20412;-64
2023/05/15 10:54:11;;;;;;;6.03;5.63;;;;;;;;;;5076061;28;20399;-64
2023/05/15 10:56:38;;;;;;;6.63;5.90;;;;;;;;;;5076565;28;20784;-64
2023/05/15 10:59:08;;;;;;;5.97;5.40;;;;;;;;;;5075449;28;20889;-64
2023/05/15 11:01:35;;;;;;;7.03;6.53;;;;;;;;;;5075888;28;20461;-64
2023/05/15 11:04:06;;;;;;;7.20;6.73;;;;;;;;;;5075864;28;20409;-64
2023/05/15 11:06:35;;;;;;;6.63;6.23;;;;;;;;;;5074384;28;20425;-64
2023/05/15 11:09:19;;;;;;;6.63;6.33;;;;;;;;;;5075922;28;20418;-66
2023/05/15 11:11:51;;;;;;;6.80;6.33;;;;;;;;;;5076124;28;20436;-64
2023/05/15 11:14:20;;;;;;;7.17;6.77;;;;;;;;;;5075199;28;20418;-64
2023/05/15 11:16:52;;;;;;;8.63;7.87;;;;;;;;;;5075373;28;20755;-64
2023/05/15 11:19:21;;;;;;;6.90;6.30;;;;;;;;;;5075378;28;20418;-63
2023/05/15 11:21:49;;;;;;;8.33;6.00;;;;;;;;;;5075344;28;20464;-64
2023/05/15 11:24:21;;;;;;;6.73;6.23;;;;;;;;;;5075232;28;20828;-64
2023/05/15 11:26:51;;;;;;;11.77;9.77;;;;;;;;;;5075251;28;20765;-64
2023/05/15 11:29:18;;;;;;;11.20;10.20;;;;;;;;;;5074603;28;20403;-64
2023/05/15 11:31:44;;;;;;;7.80;6.90;;;;;;;;;;5075081;28;20425;-63
2023/05/15 11:34:10;;;;;;;8.20;7.60;;;;;;;;;;5074886;28;20419;-64
2023/05/15 11:36:40;;;;;;;5.73;5.43;;;;;;;;;;5075115;28;20449;-64
2023/05/15 11:39:12;;;;;;;6.37;6.03;;;;;;;;;;5073777;28;20419;-64
2023/05/15 11:41:40;;;;;;;6.50;5.80;;;;;;;;;;5073782;28;20458;-64
2023/05/15 11:44:06;;;;;;;6.60;6.10;;;;;;;;;;5075025;28;20411;-65
2023/05/15 11:46:32;;;;;;;6.57;5.87;;;;;;;;;;5074610;28;20778;-64
2023/05/15 11:48:58;;;;;;;7.37;6.77;;;;;;;;;;5074868;28;20463;-64
2023/05/15 11:51:26;;;;;;;6.90;6.43;;;;;;;;;;5075336;28;20412;-65
2023/05/15 11:53:54;;;;;;;7.37;6.77;;;;;;;;;;5074793;28;20494;-64
2023/05/15 11:56:23;;;;;;;6.50;6.00;;;;;;;;;;5074636;28;20437;-65
2023/05/15 11:58:53;;;;;;;6.60;6.20;;;;;;;;;;5073164;28;20414;-65
2023/05/15 12:01:19;;;;;;;6.20;5.60;;;;;;;;;;5073996;28;20501;-63
2023/05/15 12:03:49;;;;;;;6.63;6.07;;;;;;;;;;5074253;28;20489;-65
2023/05/15 12:06:18;;;;;;;5.80;5.40;;;;;;;;;;5074457;28;20930;-65
2023/05/15 12:08:44;;;;;;;6.03;5.73;;;;;;;;;;5074625;28;20412;-65
2023/05/15 12:11:12;;;;;;;6.67;6.17;;;;;;;;;;5074650;28;20523;-65
2023/05/15 12:13:38;;;;;;;7.43;6.83;;;;;;;;;;5074680;28;20408;-64
2023/05/15 12:16:04;;;;;;;6.87;5.40;;;;;;;;;;5074453;28;20773;-64
2023/05/15 12:18:35;;;;;;;4.80;4.50;;;;;;;;;;5074683;28;20427;-63
2023/05/15 12:21:04;;;;;;;5.60;5.10;;;;;;;;;;5074400;28;20480;-62
2023/05/15 12:23:31;;;;;;;5.73;5.27;;;;;;;;;;5074681;28;20475;-65
2023/05/15 12:26:00;;;;;;;4.67;4.40;;;;;;;;;;5074522;28;20887;-63
2023/05/15 12:28:27;;;;;;;7.93;4.70;;;;;;;;;;5074235;28;20404;-63
2023/05/15 12:30:54;;;;;;;4.50;4.10;;;;;;;;;;5074131;28;20806;-63
2023/05/15 12:33:20;;;;;;;9.73;4.60;;;;;;;;;;5073983;28;20440;-62
2023/05/15 12:35:53;;;;;;;5.73;3.00;;;;;;;;;;5073866;28;20436;-63
2023/05/15 12:38:23;;;;;;;2.73;2.60;;;;;;;;;;5073790;28;20414;-62
2023/05/15 12:40:52;;;;;;;4.97;3.13;;;;;;;;;;5072680;28;20462;-63
2023/05/15 12:43:18;;;;;;;3.30;2.23;;;;;;;;;;5073731;28;20489;-63
2023/05/15 12:45:45;;;;;;;2.50;2.50;;;;;;;;;;5073742;28;20944;-62
2023/05/15 12:48:14;;;;;;;2.20;2.10;;;;;;;;;;5073636;28;20413;-62
2023/05/15 12:50:43;;;;;;;2.23;2.13;;;;;;;;;;5073613;28;20434;-62
2023/05/15 12:53:12;;;;;;;1.67;1.67;;;;;;;;;;5073545;28;20797;-62
2023/05/15 12:55:39;;;;;;;2.20;2.13;;;;;;;;;;5073389;28;20499;-62
2023/05/15 12:58:07;;;;;;;2.50;2.40;;;;;;;;;;5073243;28;20904;-62
2023/05/15 13:00:36;;;;;;;2.80;2.40;;;;;;;;;;5073125;28;20907;-62
2023/05/15 13:03:02;;;;;;;5.90;2.57;;;;;;;;;;5073236;28;20418;-62
2023/05/15 13:05:33;;;;;;;1.90;1.90;;;;;;;;;;5073292;28;20487;-63
2023/05/15 13:08:00;;;;;;;2.43;2.43;;;;;;;;;;5072105;28;20452;-62
2023/05/15 13:10:26;;;;;;;2.23;2.23;;;;;;;;;;5073526;28;20773;-62
2023/05/15 13:12:53;;;;;;;2.40;2.30;;;;;;;;;;5073003;28;20435;-62
2023/05/15 13:15:22;;;;;;;2.67;2.67;;;;;;;;;;5072808;28;20847;-62
2023/05/15 13:17:50;;;;;;;3.80;2.37;;;;;;;;;;5072957;28;20416;-63
2023/05/15 13:20:16;;;;;;;2.20;2.10;;;;;;;;;;5072883;28;20471;-63
2023/05/15 13:22:44;;;;;;;3.40;2.60;;;;;;;;;;5072829;28;20416;-63
2023/05/15 13:25:16;;;;;;;2.50;2.30;;;;;;;;;;5072919;28;20410;-63
2023/05/15 13:27:44;;;;;;;2.20;2.20;;;;;;;;;;5072946;28;20407;-63
2023/05/15 13:30:11;;;;;;;2.10;2.03;;;;;;;;;;5071771;28;20432;-63
2023/05/15 13:32:39;;;;;;;2.97;1.80;;;;;;;;;;5072826;28;20464;-62
2023/05/15 13:35:08;;;;;;;2.20;2.10;;;;;;;;;;5072838;28;20414;-62
2023/05/15 13:37:34;;;;;;;2.00;1.90;;;;;;;;;;5072720;28;20440;-62
2023/05/15 13:40:00;;;;;;;2.10;2.10;;;;;;;;;;5072784;28;20514;-63
2023/05/15 13:42:29;;;;;;;5.80;1.87;;;;;;;;;;5072800;28;20941;-65
2023/05/15 13:44:55;;;;;;;2.17;1.97;;;;;;;;;;5072700;28;20468;-62
2023/05/15 13:47:21;;;;;;;2.10;2.10;;;;;;;;;;5072700;28;20828;-62
2023/05/15 13:49:47;;;;;;;2.20;2.20;;;;;;;;;;5072703;28;20450;-62
2023/05/15 13:52:13;;;;;;;3.23;2.10;;;;;;;;;;5070953;28;20847;-62
2023/05/15 13:54:39;;;;;;;2.37;2.27;;;;;;;;;;5072517;28;20412;-62
2023/05/15 13:57:05;;;;;;;1.90;1.90;;;;;;;;;;5072615;28;20498;-62
2023/05/15 13:59:33;;;;;;;3.27;2.20;;;;;;;;;;5072357;28;20528;-62
2023/05/15 14:02:00;;;;;;;2.30;2.20;;;;;;;;;;5072727;28;20578;-62
2023/05/15 14:04:26;;;;;;;2.60;2.10;;;;;;;;;;5072514;28;20506;-63
2023/05/15 14:06:52;;;;;;;2.70;2.60;;;;;;;;;;5072530;28;20497;-63
2023/05/15 14:09:18;;;;;;;2.40;2.40;;;;;;;;;;5072413;28;20419;-62
2023/05/15 14:11:44;;;;;;;2.60;2.50;;;;;;;;;;5072321;28;20938;-62
2023/05/15 14:14:10;;;;;;;2.87;2.80;;;;;;;;;;5072540;28;20419;-62
2023/05/15 14:16:36;;;;;;;2.70;2.40;;;;;;;;;;5072382;28;20450;-63
2023/05/15 14:19:02;;;;;;;2.50;2.40;;;;;;;;;;5072384;28;20413;-63
2023/05/15 14:21:28;;;;;;;3.20;2.90;;;;;;;;;;5072182;28;20460;-62
2023/05/15 14:23:56;;;;;;;3.10;3.00;;;;;;;;;;5072375;28;20393;-62
2023/05/15 14:26:22;;;;;;;3.13;3.03;;;;;;;;;;5072199;28;20410;-62
2023/05/15 14:28:48;;;;;;;3.90;3.20;;;;;;;;;;5072209;28;20447;-62
2023/05/15 14:31:14;;;;;;;3.67;3.40;;;;;;;;;;5072264;28;20424;-62
2023/05/15 14:33:45;;;;;;;3.77;3.57;;;;;;;;;;5072149;28;20497;-62
2023/05/15 14:36:10;;;;;;;3.37;3.17;;;;;;;;;;5072244;28;20420;-62
2023/05/15 14:38:37;;;;;;;5.57;3.03;;;;;;;;;;5070811;28;20481;-62
2023/05/15 14:41:03;;;;;;;3.50;3.40;;;;;;;;;;5072114;28;20862;-62